Time;durP1;ratioP1;P1;durP2;ratioP2;P2;SDS_P1;SDS_P2;PMS_P1;PMS_P2;Temp;Humidity;BMP_temperature;BMP_pressure;BME280_temperature;BME280_humidity;BME280_pressure;Samples;Min_cycle;Max_cycle;Signal;HPM_P1;HPM_P2
2021/07/08 00:01:14;;;;;;;19.42;16.73;;;22.80;99.90;;;;;;4996987;28;20026;-57
2021/07/08 00:03:40;;;;;;;23.98;17.85;;;22.70;99.90;;;;;;4955599;29;20455;-63
2021/07/08 00:06:06;;;;;;;22.60;18.52;;;22.50;99.90;;;;;;4955925;29;20061;-61
2021/07/08 00:08:32;;;;;;;27.00;19.52;;;22.40;99.90;;;;;;4958480;29;20042;-55
2021/07/08 00:10:58;;;;;;;26.30;20.70;;;22.40;99.90;;;;;;4957960;29;20430;-59
2021/07/08 00:13:26;;;;;;;30.35;21.17;;;22.30;99.90;;;;;;4920608;29;20074;-62
2021/07/08 00:15:53;;;;;;;29.52;20.85;;;22.20;99.90;;;;;;4926312;29;20044;-53
2021/07/08 00:18:21;;;;;;;31.80;19.25;;;22.10;99.90;;;;;;4922593;29;20047;-64
2021/07/08 00:20:50;;;;;;;29.02;19.95;;;22.00;99.90;;;;;;4886397;29;20492;-60
2021/07/08 00:23:17;;;;;;;20.48;18.35;;;22.00;99.90;;;;;;4855928;29;20131;-55
2021/07/08 00:25:44;;;;;;;30.25;21.35;;;22.00;99.90;;;;;;4917711;29;20044;-62
2021/07/08 00:28:15;;;;;;;20.33;18.23;;;22.00;99.90;;;;;;4864128;29;20101;-62
2021/07/08 00:30:42;;;;;;;19.23;17.17;;;22.00;99.90;;;;;;4879831;29;20045;-67
2021/07/08 00:33:08;;;;;;;20.13;16.38;;;22.00;99.90;;;;;;4879856;29;20056;-57
2021/07/08 00:35:36;;;;;;;17.85;16.05;;;22.00;99.90;;;;;;4880544;29;20128;-63
2021/07/08 00:38:02;;;;;;;17.50;15.60;;;22.00;99.90;;;;;;4898398;29;20061;-55
2021/07/08 00:40:28;;;;;;;18.52;16.70;;;22.00;99.90;;;;;;4898381;29;20044;-62
2021/07/08 00:42:54;;;;;;;17.95;16.05;;;21.90;99.90;;;;;;4898352;29;20044;-63
2021/07/08 00:45:21;;;;;;;18.88;17.00;;;21.90;99.90;;;;;;4882777;29;20051;-56
2021/07/08 00:47:47;;;;;;;20.73;16.23;;;21.80;99.90;;;;;;4897932;29;20044;-55
2021/07/08 00:50:15;;;;;;;18.25;16.42;;;21.70;99.90;;;;;;4907957;29;20076;-59
2021/07/08 00:52:41;;;;;;;18.33;16.25;;;21.70;99.90;;;;;;4898059;29;20128;-59
2021/07/08 00:55:08;;;;;;;21.13;17.45;;;21.70;99.90;;;;;;4898020;29;20127;-61
2021/07/08 00:57:40;;;;;;;17.77;15.88;;;21.60;99.90;;;;;;4898199;29;20444;-67
2021/07/08 01:00:06;;;;;;;;;;;21.60;99.90;;;;;;4949467;29;20437;-60
2021/07/08 01:02:33;;;;;;;17.90;16.02;;;21.60;99.90;;;;;;4938810;29;19914;-57
2021/07/08 01:04:59;;;;;;;27.60;18.23;;;21.50;99.90;;;;;;4961548;28;20138;-55
2021/07/08 01:07:26;;;;;;;20.25;18.13;;;21.40;99.90;;;;;;4974425;28;20039;-64
2021/07/08 01:09:52;;;;;;;20.02;17.95;;;21.40;99.90;;;;;;4972639;28;20034;-57
2021/07/08 01:12:19;;;;;;;20.15;17.60;;;21.30;99.90;;;;;;4974144;28;20050;-56
2021/07/08 01:14:45;;;;;;;19.75;16.65;;;21.20;99.90;;;;;;4973937;28;20035;-57
2021/07/08 01:17:11;;;;;;;18.05;16.27;;;21.20;99.90;;;;;;4973972;28;20041;-57
2021/07/08 01:19:38;;;;;;;18.63;16.30;;;21.20;99.90;;;;;;4974088;28;20039;-60
2021/07/08 01:22:05;;;;;;;19.33;17.25;;;21.10;99.90;;;;;;4973947;28;20038;-63
2021/07/08 01:24:32;;;;;;;21.08;18.05;;;21.00;99.90;;;;;;5009492;28;20042;-61
2021/07/08 01:26:58;;;;;;;23.10;18.67;;;21.00;99.90;;;;;;5014877;28;20057;-60
2021/07/08 01:29:24;;;;;;;21.17;18.77;;;20.90;99.90;;;;;;5015225;28;20034;-60
2021/07/08 01:31:50;;;;;;;20.40;18.30;;;20.70;99.90;;;;;;5014819;28;20081;-58
2021/07/08 01:34:16;;;;;;;21.45;19.13;;;20.60;99.90;;;;;;5014945;28;20419;-63
2021/07/08 01:36:42;;;;;;;21.10;18.08;;;20.50;99.90;;;;;;4980344;28;20599;-58
2021/07/08 01:39:08;;;;;;;21.27;19.08;;;20.40;99.90;;;;;;5014900;28;20053;-62
2021/07/08 01:41:34;;;;;;;20.55;18.48;;;20.40;99.90;;;;;;5014766;28;20021;-62
2021/07/08 01:44:00;;;;;;;21.38;19.02;;;20.30;99.90;;;;;;5014647;28;20034;-60
2021/07/08 01:46:26;;;;;;;20.48;18.33;;;20.30;99.90;;;;;;5014512;28;20538;-67
2021/07/08 01:48:52;;;;;;;19.73;17.65;;;20.30;99.90;;;;;;5014818;28;20022;-62
2021/07/08 01:51:21;;;;;;;21.30;19.00;;;20.40;99.90;;;;;;5014539;28;20049;-58
2021/07/08 01:53:47;;;;;;;20.00;17.90;;;20.40;99.90;;;;;;5014415;28;20032;-62
2021/07/08 01:56:13;;;;;;;21.52;18.38;;;20.40;99.90;;;;;;5014251;28;20669;-58
2021/07/08 01:58:38;;;;;;;21.77;18.88;;;20.50;99.90;;;;;;5014422;28;20515;-59
2021/07/08 02:01:04;;;;;;;22.23;18.42;;;20.50;99.90;;;;;;5013849;28;20366;-57
2021/07/08 02:03:30;;;;;;;24.13;19.42;;;20.50;99.90;;;;;;5014321;28;20080;-60
2021/07/08 02:05:56;;;;;;;21.95;18.23;;;20.40;99.90;;;;;;5014153;28;20132;-60
2021/07/08 02:08:22;;;;;;;21.85;18.08;;;20.40;99.90;;;;;;5014345;28;20437;-59
2021/07/08 02:10:48;;;;;;;23.25;19.10;;;20.50;99.90;;;;;;5012468;28;20065;-59
2021/07/08 02:13:14;;;;;;;21.23;18.25;;;20.60;99.90;;;;;;5014178;28;20036;-61
2021/07/08 02:15:39;;;;;;;23.65;18.13;;;20.60;99.90;;;;;;5013928;28;20044;-60
2021/07/08 02:18:06;;;;;;;22.92;17.15;;;20.60;99.90;;;;;;5014056;28;20025;-59
2021/07/08 02:20:32;;;;;;;21.02;18.77;;;20.60;99.90;;;;;;4995859;28;20122;-62
2021/07/08 02:22:58;;;;;;;21.98;17.70;;;20.50;99.90;;;;;;5014151;28;20033;-62
2021/07/08 02:25:24;;;;;;;23.27;18.88;;;20.40;99.90;;;;;;5014083;28;20531;-61
2021/07/08 02:27:49;;;;;;;21.50;18.77;;;20.30;99.90;;;;;;5014042;28;20076;-59
2021/07/08 02:30:22;;;;;;;19.58;17.50;;;20.20;99.90;;;;;;5014175;28;20030;-63
2021/07/08 02:32:48;;;;;;;;;;;20.00;99.90;;;;;;5012596;28;20033;-63
2021/07/08 02:35:15;;;;;;;22.73;19.20;;;20.00;99.90;;;;;;5013705;28;20063;-56
2021/07/08 02:37:42;;;;;;;21.10;19.00;;;19.90;99.90;;;;;;5013684;28;20022;-59
2021/07/08 02:40:32;;;;;;;22.17;19.08;;;19.90;99.90;;;;;;5013600;28;20025;-62
2021/07/08 02:42:59;;;;;;;21.77;19.48;;;19.90;99.90;;;;;;5013738;28;20485;-65
2021/07/08 02:45:30;;;;;;;23.50;20.25;;;19.90;99.90;;;;;;4995515;28;20042;-63
2021/07/08 02:47:58;;;;;;;21.83;19.65;;;19.90;99.90;;;;;;5013712;28;20029;-59
2021/07/08 02:50:26;;;;;;;22.67;19.90;;;19.90;99.90;;;;;;5013460;28;20164;-60
2021/07/08 02:52:52;;;;;;;22.30;20.08;;;19.80;99.90;;;;;;4963514;28;20038;-65
2021/07/08 02:55:18;;;;;;;22.85;20.52;;;19.80;99.90;;;;;;5013432;28;20376;-61
2021/07/08 02:57:47;;;;;;;23.45;21.23;;;19.80;99.90;;;;;;4995473;28;20038;-58
2021/07/08 03:00:20;;;;;;;23.13;20.70;;;19.80;99.90;;;;;;5013403;28;20026;-58
2021/07/08 03:02:46;;;;;;;23.63;21.17;;;19.90;99.90;;;;;;5012158;28;20374;-57
2021/07/08 03:05:12;;;;;;;22.00;19.77;;;19.90;99.90;;;;;;5013087;28;20133;-60
2021/07/08 03:07:39;;;;;;;22.88;20.35;;;20.00;99.90;;;;;;4994988;28;20069;-59
2021/07/08 03:10:07;;;;;;;21.33;19.17;;;20.10;99.90;;;;;;5013441;28;20030;-60
2021/07/08 03:12:33;;;;;;;22.23;19.85;;;20.30;99.90;;;;;;4978770;28;20078;-61
2021/07/08 03:14:58;;;;;;;22.35;18.63;;;20.40;99.90;;;;;;4979481;28;20078;-62
2021/07/08 03:17:24;;;;;;;21.42;19.13;;;20.40;99.90;;;;;;4988684;28;20039;-64
2021/07/08 03:19:50;;;;;;;20.25;18.25;;;20.30;99.90;;;;;;4976249;28;20058;-62
2021/07/08 03:22:16;;;;;;;21.05;18.00;;;20.30;99.90;;;;;;4956701;29;20043;-61
2021/07/08 03:24:42;;;;;;;20.25;18.17;;;20.20;99.90;;;;;;4956742;29;20506;-61
2021/07/08 03:27:07;;;;;;;20.38;18.35;;;20.10;99.90;;;;;;4956793;29;20122;-64
2021/07/08 03:29:34;;;;;;;20.48;17.20;;;20.10;99.90;;;;;;4956841;29;20027;-67
2021/07/08 03:31:59;;;;;;;19.80;17.77;;;20.20;99.90;;;;;;4956623;29;20399;-60
2021/07/08 03:34:25;;;;;;;22.85;17.23;;;20.10;99.90;;;;;;4956147;29;20070;-59
2021/07/08 03:36:51;;;;;;;19.42;17.33;;;20.10;99.90;;;;;;4956424;29;20054;-59
2021/07/08 03:39:17;;;;;;;18.45;16.48;;;20.10;99.90;;;;;;4956546;29;20031;-60
2021/07/08 03:41:44;;;;;;;19.75;17.58;;;20.10;99.90;;;;;;4956694;29;20046;-67
2021/07/08 03:44:10;;;;;;;20.70;17.40;;;20.10;99.90;;;;;;4956395;29;20136;-61
2021/07/08 03:46:36;;;;;;;19.77;17.77;;;20.00;99.90;;;;;;4956520;29;20027;-60
2021/07/08 03:49:02;;;;;;;23.23;18.48;;;19.90;99.90;;;;;;4956379;29;20506;-64
2021/07/08 03:51:28;;;;;;;21.45;18.13;;;19.90;99.90;;;;;;4908523;29;20058;-60
2021/07/08 03:53:54;;;;;;;19.92;17.70;;;19.90;99.90;;;;;;4982193;28;20038;-59
2021/07/08 03:56:19;;;;;;;21.98;18.60;;;19.90;99.90;;;;;;4996942;28;20548;-62
2021/07/08 03:58:45;;;;;;;22.08;18.80;;;19.90;99.90;;;;;;4997186;28;20054;-59
2021/07/08 04:01:11;;;;;;;19.77;17.13;;;19.90;99.90;;;;;;4996644;28;20038;-62
2021/07/08 04:03:37;;;;;;;19.35;17.38;;;19.90;99.90;;;;;;4996722;28;20092;-60
2021/07/08 04:06:03;;;;;;;19.67;17.33;;;19.90;99.90;;;;;;5012520;28;20119;-62
2021/07/08 04:08:28;;;;;;;21.65;17.55;;;19.90;99.90;;;;;;5016628;28;20477;-60
2021/07/08 04:10:54;;;;;;;18.75;16.45;;;20.00;99.90;;;;;;5015889;28;20477;-61
2021/07/08 04:13:21;;;;;;;19.92;17.13;;;20.10;99.90;;;;;;5016301;28;20046;-65
2021/07/08 04:15:49;;;;;;;18.30;16.40;;;20.20;99.90;;;;;;4981560;28;20046;-61
2021/07/08 04:18:17;;;;;;;18.60;16.67;;;20.30;99.90;;;;;;5015855;28;20083;-60
2021/07/08 04:20:43;;;;;;;19.92;17.13;;;20.40;99.90;;;;;;5016090;28;20026;-58
2021/07/08 04:23:10;;;;;;;17.08;15.30;;;20.50;99.90;;;;;;5015063;28;20380;-60
2021/07/08 04:25:36;;;;;;;17.40;15.60;;;20.60;99.90;;;;;;5013236;28;20038;-64
2021/07/08 04:28:02;;;;;;;24.25;17.13;;;20.80;99.90;;;;;;5016182;28;20018;-63
2021/07/08 04:30:29;;;;;;;25.48;16.30;;;20.90;99.90;;;;;;4979446;28;20038;-63
2021/07/08 04:32:55;;;;;;;30.98;17.75;;;21.00;99.90;;;;;;4923956;28;20486;-60
2021/07/08 04:35:28;;;;;;;20.77;15.52;;;21.10;99.90;;;;;;4972202;28;20402;-59
2021/07/08 04:37:54;;;;;;;17.63;15.93;;;21.30;99.90;;;;;;4975052;28;20098;-63
2021/07/08 04:40:21;;;;;;;17.35;15.32;;;21.40;99.90;;;;;;4974200;28;20031;-63
2021/07/08 04:42:48;;;;;;;20.33;16.80;;;21.50;99.90;;;;;;4969212;28;20506;-64
2021/07/08 04:45:14;;;;;;;17.67;15.98;;;21.60;99.90;;;;;;4956392;28;20067;-58
2021/07/08 04:47:41;;;;;;;17.95;15.98;;;21.70;99.90;;;;;;4952279;28;20119;-57
2021/07/08 04:50:10;;;;;;;18.90;15.20;;;21.90;99.90;;;;;;4925965;29;20080;-59
2021/07/08 04:52:37;;;;;;;20.83;16.95;;;21.90;99.90;;;;;;4932678;29;20063;-58
2021/07/08 04:55:05;;;;;;;17.58;15.80;;;22.00;99.90;;;;;;4919746;29;20529;-59
2021/07/08 04:57:31;;;;;;;19.25;16.80;;;22.20;99.90;;;;;;4903742;29;20491;-57
2021/07/08 04:59:56;;;;;;;20.17;16.80;;;22.20;99.90;;;;;;4922213;29;20054;-59
2021/07/08 05:02:22;;;;;;;20.83;16.88;;;22.30;99.90;;;;;;4926884;29;20029;-62
2021/07/08 05:04:48;;;;;;;18.10;15.98;;;22.40;99.90;;;;;;4950021;29;20598;-61
2021/07/08 05:07:16;;;;;;;16.48;14.57;;;22.50;99.90;;;;;;4954341;29;20032;-62
2021/07/08 05:09:42;;;;;;;15.70;14.13;;;22.60;99.90;;;;;;4923129;29;20143;-66
2021/07/08 05:12:08;;;;;;;16.85;14.48;;;22.80;99.90;;;;;;4954909;29;20071;-64
2021/07/08 05:14:34;;;;;;;15.80;14.20;;;22.90;99.90;;;;;;4898017;29;20036;-61
2021/07/08 05:17:04;;;;;;;20.27;15.50;;;23.00;99.90;;;;;;4917433;29;20039;-63
2021/07/08 05:19:31;;;;;;;18.38;14.90;;;23.10;99.90;;;;;;4954919;29;20039;-58
2021/07/08 05:21:57;;;;;;;16.55;14.50;;;23.30;99.90;;;;;;4989235;28;20038;-55
2021/07/08 05:24:25;;;;;;;17.52;14.98;;;23.40;99.90;;;;;;4995422;28;20050;-57
2021/07/08 05:26:52;;;;;;;22.02;17.08;;;23.50;99.90;;;;;;4995387;28;20043;-63
2021/07/08 05:29:17;;;;;;;18.65;16.50;;;23.60;99.90;;;;;;4960559;28;20092;-61
2021/07/08 05:31:43;;;;;;;20.77;17.10;;;23.70;99.90;;;;;;4994975;28;20026;-56
2021/07/08 05:34:10;;;;;;;23.08;16.48;;;23.80;99.90;;;;;;4994812;28;20065;-66
2021/07/08 05:36:36;;;;;;;18.20;15.95;;;24.00;99.90;;;;;;4994582;28;20038;-61
2021/07/08 05:39:03;;;;;;;17.73;15.90;;;24.10;99.90;;;;;;4995203;28;20042;-61
2021/07/08 05:41:29;;;;;;;18.20;15.75;;;24.30;99.90;;;;;;4994931;28;20030;-62
2021/07/08 05:43:55;;;;;;;20.25;16.13;;;24.40;99.90;;;;;;4994978;28;20378;-61
2021/07/08 05:46:22;;;;;;;20.20;15.23;;;24.50;99.90;;;;;;4995118;28;20033;-57
2021/07/08 05:48:48;;;;;;;16.73;14.57;;;;;;;;;;4994945;28;20041;-57
2021/07/08 05:51:14;;;;;;;28.55;15.70;;;;;;;;;;4995030;28;20034;-59
2021/07/08 05:53:40;;;;;;;18.02;15.02;;;;;;;;;;4994871;28;20497;-63
2021/07/08 05:56:06;;;;;;;18.52;14.55;;;25.20;99.90;;;;;;4994928;28;20042;-60
2021/07/08 05:58:32;;;;;;;16.17;13.82;;;25.30;99.90;;;;;;4994909;28;20105;-60
2021/07/08 06:00:58;;;;;;;15.93;14.23;;;25.50;99.90;;;;;;4994915;28;20033;-66
2021/07/08 06:03:24;;;;;;;16.02;13.88;;;25.70;99.90;;;;;;4977260;28;20053;-60
2021/07/08 06:05:51;;;;;;;21.00;13.77;;;25.80;99.90;;;;;;5008566;28;20050;-58
2021/07/08 06:08:17;;;;;;;20.15;12.73;;;26.00;99.90;;;;;;5014738;28;20030;-67
2021/07/08 06:10:44;;;;;;;14.70;12.60;;;;;;;;;;5006553;28;20018;-64
2021/07/08 06:13:11;;;;;;;14.68;12.43;;;26.40;99.90;;;;;;4995914;28;20492;-60
2021/07/08 06:15:37;;;;;;;20.17;14.27;;;26.60;99.90;;;;;;4995783;28;20045;-66
2021/07/08 06:18:03;;;;;;;16.15;12.63;;;26.80;99.90;;;;;;5014557;28;20021;-59
2021/07/08 06:20:29;;;;;;;16.27;12.38;;;27.00;99.90;;;;;;5013364;28;20026;-64
2021/07/08 06:22:56;;;;;;;14.18;12.25;;;;;;;;;;5013666;28;20021;-64
2021/07/08 06:25:23;;;;;;;13.70;10.82;;;;;;;;;;5013940;28;20069;-61
2021/07/08 06:27:49;;;;;;;14.45;11.38;;;27.70;99.90;;;;;;5013978;28;20026;-61
2021/07/08 06:30:16;;;;;;;12.23;9.85;;;;;;;;;;5014019;28;20022;-60
2021/07/08 06:32:43;;;;;;;11.40;10.20;;;28.20;99.90;;;;;;5013956;28;20109;-62
2021/07/08 06:35:09;;;;;;;9.93;8.93;;;;;;;;;;5013994;28;20025;-65
2021/07/08 06:37:36;;;;;;;13.77;9.90;;;28.60;94.60;;;;;;5012861;28;20029;-62
2021/07/08 06:40:03;;;;;;;11.68;9.23;;;28.80;94.30;;;;;;5005124;28;20034;-61
2021/07/08 06:42:29;;;;;;;13.77;9.68;;;29.00;93.60;;;;;;4995772;28;20081;-60
2021/07/08 06:44:54;;;;;;;10.18;9.05;;;29.10;92.90;;;;;;5013741;28;20349;-62
2021/07/08 06:47:21;;;;;;;14.48;9.98;;;29.30;92.30;;;;;;5013266;28;20026;-64
2021/07/08 06:49:47;;;;;;;12.75;9.95;;;29.50;93.40;;;;;;5014769;28;20042;-62
2021/07/08 06:52:15;;;;;;;11.88;10.07;;;29.60;92.50;;;;;;5012549;28;20022;-61
2021/07/08 06:54:41;;;;;;;10.85;9.68;;;29.80;92.80;;;;;;5013510;28;20041;-62
2021/07/08 06:57:07;;;;;;;15.50;10.13;;;30.10;91.50;;;;;;5012456;28;20066;-60
2021/07/08 06:59:33;;;;;;;14.48;8.95;;;30.30;91.70;;;;;;5013587;28;20049;-63
2021/07/08 07:01:59;;;;;;;10.27;8.50;;;30.30;90.90;;;;;;4964402;28;20429;-62
2021/07/08 07:04:25;;;;;;;10.27;9.00;;;30.50;89.70;;;;;;5018245;28;20120;-58
2021/07/08 07:06:52;;;;;;;14.50;9.35;;;30.60;90.80;;;;;;4984208;28;20047;-58
2021/07/08 07:09:19;;;;;;;11.50;8.88;;;30.70;90.40;;;;;;5031283;28;20380;-59
2021/07/08 07:11:45;;;;;;;9.57;8.38;;;30.90;87.60;;;;;;5031604;28;20032;-60
2021/07/08 07:14:11;;;;;;;10.23;9.20;;;31.10;89.50;;;;;;5030744;28;20060;-67
2021/07/08 07:16:37;;;;;;;9.60;8.40;;;31.20;89.40;;;;;;4998473;28;20061;-60
2021/07/08 07:19:02;;;;;;;10.10;8.95;;;31.40;84.30;;;;;;5035238;28;20036;-64
2021/07/08 07:21:28;;;;;;;10.85;7.53;;;31.50;83.50;;;;;;4988962;28;20042;-65
2021/07/08 07:23:54;;;;;;;8.75;7.90;;;31.60;81.50;;;;;;5026533;28;20108;-56
2021/07/08 07:26:21;;;;;;;10.07;8.70;;;31.80;82.20;;;;;;5030237;28;20034;-67
2021/07/08 07:28:48;;;;;;;9.32;8.30;;;31.90;82.80;;;;;;5029118;28;20033;-61
2021/07/08 07:31:15;;;;;;;10.70;7.85;;;32.00;81.70;;;;;;5030986;28;20052;-66
2021/07/08 07:33:42;;;;;;;10.50;7.75;;;32.00;81.30;;;;;;5032030;28;20032;-63
2021/07/08 07:36:10;;;;;;;8.57;7.57;;;32.30;81.00;;;;;;5032461;28;20045;-64
2021/07/08 07:38:36;;;;;;;13.30;7.45;;;;;;;;;;5030630;28;20029;-58
2021/07/08 07:41:02;;;;;;;13.93;7.70;;;32.50;78.60;;;;;;5025704;28;20098;-60
2021/07/08 07:43:28;;;;;;;12.95;7.85;;;;;;;;;;4978668;28;20041;-64
2021/07/08 07:45:54;;;;;;;9.35;8.45;;;32.90;79.40;;;;;;5031657;28;20026;-60
2021/07/08 07:48:20;;;;;;;10.38;7.90;;;32.90;78.70;;;;;;5031761;28;20041;-63
2021/07/08 07:50:46;;;;;;;8.85;7.78;;;33.00;79.40;;;;;;5031694;28;20044;-61
2021/07/08 07:53:12;;;;;;;10.27;7.28;;;33.10;79.80;;;;;;5030290;28;20025;-63
2021/07/08 07:55:37;;;;;;;9.45;8.27;;;33.30;80.10;;;;;;5033508;28;20480;-58
2021/07/08 07:58:05;;;;;;;12.98;8.73;;;33.60;81.60;;;;;;5014508;28;20481;-64
2021/07/08 08:00:31;;;;;;;9.30;8.35;;;33.40;78.80;;;;;;5033565;28;20032;-63
2021/07/08 08:02:58;;;;;;;13.10;9.50;;;33.60;78.40;;;;;;4998796;28;20060;-62
2021/07/08 08:10:43;;;;;;;9.63;7.05;;;33.90;74.60;;;;;;5035069;28;20096;-67
2021/07/08 08:13:09;;;;;;;7.07;6.05;;;33.90;74.70;;;;;;5032567;28;20022;-63
2021/07/08 08:15:35;;;;;;;7.30;6.60;;;34.00;74.20;;;;;;5034386;28;20038;-62
2021/07/08 08:18:02;;;;;;;8.23;6.53;;;34.00;73.70;;;;;;5033995;28;20034;-63
2021/07/08 08:20:29;;;;;;;10.18;6.90;;;34.30;71.70;;;;;;5034445;28;20030;-62
2021/07/08 08:22:55;;;;;;;7.97;7.18;;;34.20;73.00;;;;;;5038475;28;20025;-62
2021/07/08 08:25:21;;;;;;;7.47;6.35;;;34.20;73.20;;;;;;5036301;28;20024;-65
2021/07/08 08:27:47;;;;;;;10.07;7.38;;;34.40;72.00;;;;;;5039443;28;20645;-64
2021/07/08 08:30:14;;;;;;;7.40;5.57;;;34.70;70.90;;;;;;4919898;28;20041;-59
2021/07/08 08:32:43;;;;;;;6.57;5.75;;;34.40;67.30;;;;;;5034869;28;20112;-59
2021/07/08 08:35:10;;;;;;;7.38;5.53;;;34.70;67.40;;;;;;5035614;28;20037;-57
2021/07/08 08:37:37;;;;;;;6.75;5.20;;;34.80;69.00;;;;;;5002226;28;20064;-61
2021/07/08 08:40:04;;;;;;;8.80;6.20;;;35.00;68.50;;;;;;5039895;28;20074;-59
2021/07/08 08:42:31;;;;;;;16.13;12.63;;;35.30;66.70;;;;;;5007358;28;20398;-59
2021/07/08 08:44:56;;;;;;;13.23;7.65;;;36.80;66.90;;;;;;5035620;28;20029;-63
2021/07/08 08:47:23;;;;;;;32.25;22.27;;;37.80;65.00;;;;;;5037119;28;20028;-59
2021/07/08 08:49:53;;;;;;;6.93;5.88;;;39.10;63.10;;;;;;5034322;28;20028;-58
2021/07/08 08:52:21;;;;;;;15.73;10.90;;;40.00;61.10;;;;;;5033202;28;20105;-63
2021/07/08 08:54:50;;;;;;;10.65;5.18;;;39.70;57.60;;;;;;5004225;28;20041;-61
2021/07/08 08:57:16;;;;;;;6.03;5.45;;;39.20;56.60;;;;;;5035993;28;20037;-60
2021/07/08 08:59:41;;;;;;;6.68;6.07;;;38.60;56.70;;;;;;4990630;28;20029;-63
2021/07/08 09:02:14;;;;;;;9.48;6.90;;;40.50;56.60;;;;;;5033772;28;20380;-60
2021/07/08 09:04:41;;;;;;;6.50;5.90;;;41.50;55.40;;;;;;5028104;28;20053;-60
2021/07/08 09:07:31;;;;;;;6.30;5.70;;;41.80;53.10;;;;;;5037447;28;20029;-64
2021/07/08 09:10:12;;;;;;;5.68;5.13;;;42.40;53.00;;;;;;5032917;28;20026;-62
2021/07/08 09:12:38;;;;;;;5.28;4.75;;;42.00;50.20;;;;;;5033108;28;20073;-64
2021/07/08 09:15:16;;;;;;;6.82;4.82;;;43.60;49.90;;;;;;5034295;28;20037;-60
2021/07/08 09:17:43;;;;;;;6.15;4.97;;;44.00;48.70;;;;;;5011761;28;20103;-60
2021/07/08 09:20:12;;;;;;;5.53;4.60;;;45.00;48.40;;;;;;5030732;28;20469;-58
2021/07/08 09:22:39;;;;;;;7.65;5.45;;;44.70;47.60;;;;;;5011467;28;20037;-58
2021/07/08 09:25:20;;;;;;;7.90;4.53;;;45.70;47.20;;;;;;5034021;28;20116;-58
2021/07/08 09:27:46;;;;;;;;;;;46.10;45.60;;;;;;5034999;28;20030;-59
2021/07/08 09:30:25;;;;;;;5.00;4.50;;;47.20;45.60;;;;;;5030535;28;19917;-63
2021/07/08 09:32:51;;;;;;;5.35;4.47;;;47.30;44.60;;;;;;4986074;28;20041;-63
2021/07/08 09:35:35;;;;;;;5.13;4.55;;;45.80;44.60;;;;;;5029506;28;20048;-64
2021/07/08 09:38:11;;;;;;;4.32;3.92;;;45.50;44.30;;;;;;5029595;28;20040;-65
2021/07/08 09:40:38;;;;;;;5.18;4.68;;;46.50;44.10;;;;;;5035600;28;20030;-63
2021/07/08 09:43:04;;;;;;;4.78;4.20;;;46.30;44.50;;;;;;4978118;28;20120;-65
2021/07/08 09:45:30;;;;;;;6.07;4.43;;;;;;;;;;5032423;28;20124;-62
2021/07/08 09:48:09;;;;;;;9.07;4.45;;;;;;;;;;5037869;28;20388;-64
2021/07/08 09:50:38;;;;;;;8.25;4.40;;;44.50;48.20;;;;;;4992093;28;20497;-65
2021/07/08 09:53:08;;;;;;;5.32;3.80;;;45.80;44.10;;;;;;5014285;28;20501;-68
2021/07/08 09:58:52;;;;;;;5.45;4.13;;;44.90;44.90;;;;;;5035357;28;20041;-65
2021/07/08 10:01:18;;;;;;;6.65;3.92;;;45.60;44.60;;;;;;5041092;28;20036;-65
2021/07/08 10:03:44;;;;;;;8.25;3.97;;;45.80;44.20;;;;;;4980874;28;20469;-66
2021/07/08 10:06:11;;;;;;;10.68;4.65;;;45.80;44.20;;;;;;4978325;28;20059;-65
2021/07/08 10:08:38;;;;;;;5.57;4.15;;;;;;;;;;4947570;28;20050;-62
2021/07/08 10:11:04;;;;;;;4.10;3.75;;;45.40;43.40;;;;;;4974643;28;20034;-63
2021/07/08 10:13:33;;;;;;;7.43;3.97;;;;;;;;;;4949499;28;20038;-65
2021/07/08 10:16:05;;;;;;;10.27;4.15;;;;;;;;;;4974395;28;20490;-67
2021/07/08 10:18:35;;;;;;;5.65;3.95;;;46.00;43.60;;;;;;4986494;28;20061;-65
2021/07/08 10:21:02;;;;;;;4.65;4.00;;;;;;;;;;4971453;28;20035;-60
2021/07/08 10:23:32;;;;;;;8.35;4.50;;;;;;;;;;4978533;28;20054;-66
2021/07/08 10:26:00;;;;;;;5.68;3.85;;;47.80;61.90;;;;;;4974712;28;20031;-66
2021/07/08 10:28:29;;;;;;;4.72;4.30;;;;;;;;;;4980766;28;20026;-67
2021/07/08 10:30:55;;;;;;;6.45;3.85;;;;;;;;;;4971405;28;20493;-68
2021/07/08 10:33:21;;;;;;;6.78;4.22;;;;;;;;;;4975509;28;20035;-65
2021/07/08 10:35:49;;;;;;;6.40;4.50;;;;;;;;;;5017214;28;20080;-61
2021/07/08 10:38:27;;;;;;;6.35;4.07;;;;;;;;;;5033231;28;20041;-66
2021/07/08 10:40:57;;;;;;;8.75;3.97;;;52.50;40.40;;;;;;5025628;28;20367;-65
2021/07/08 10:43:35;;;;;;;5.10;4.70;;;;;;;;;;4996445;28;20519;-61
2021/07/08 10:46:21;;;;;;;4.75;4.25;;;;;;;;;;5034159;28;20033;-65
2021/07/08 10:48:48;;;;;;;8.13;4.43;;;;;;;;;;5035901;28;20037;-66
2021/07/08 10:51:32;;;;;;;6.25;4.78;;;;;;;;;;5036758;28;20033;-62
2021/07/08 10:53:59;;;;;;;7.28;4.22;;;;;;;;;;5024308;28;20120;-65
2021/07/08 10:56:32;;;;;;;9.85;5.40;;;;;;;;;;5030772;28;20038;-65
2021/07/08 10:58:59;;;;;;;5.28;4.47;;;;;;;;;;4997903;28;20041;-64
2021/07/08 11:01:26;;;;;;;6.30;4.25;;;56.60;55.70;;;;;;5032068;28;20026;-63
2021/07/08 11:03:59;;;;;;;6.00;4.38;;;57.40;52.60;;;;;;5032939;28;20074;-66
2021/07/08 11:06:32;;;;;;;5.00;4.45;;;50.50;38.00;;;;;;5032362;28;20147;-65
2021/07/08 11:09:22;;;;;;;8.07;4.55;;;49.40;39.90;;;;;;4995896;28;20053;-66
2021/07/08 11:11:50;;;;;;;4.90;4.40;;;51.80;40.30;;;;;;5011780;28;20041;-64
2021/07/08 11:14:19;;;;;;;5.35;4.38;;;51.90;39.40;;;;;;5031091;28;20096;-65
2021/07/08 11:16:58;;;;;;;5.47;4.17;;;53.50;38.90;;;;;;5031608;28;20033;-64
2021/07/08 11:19:24;;;;;;;4.70;4.30;;;55.20;61.00;;;;;;5032027;28;20498;-63
2021/07/08 11:21:51;;;;;;;7.60;4.70;;;54.50;63.00;;;;;;5031085;28;20028;-65
2021/07/08 11:24:17;;;;;;;5.75;4.40;;;54.50;61.60;;;;;;4995074;28;20084;-65
2021/07/08 11:26:56;;;;;;;6.45;4.28;;;53.80;59.80;;;;;;4940208;28;20043;-64
2021/07/08 11:29:37;;;;;;;6.23;4.43;;;55.20;60.50;;;;;;4970982;28;20470;-69
2021/07/08 11:32:23;;;;;;;;;;;54.50;58.10;;;;;;4952279;28;20042;-63
2021/07/08 11:34:53;;;;;;;8.10;4.65;;;55.40;58.90;;;;;;4973726;28;19910;-64
2021/07/08 11:37:24;;;;;;;8.88;4.82;;;54.40;58.10;;;;;;4977351;28;20525;-59
2021/07/08 11:39:56;;;;;;;4.82;4.22;;;56.60;58.80;;;;;;4979012;28;20532;-61
2021/07/08 11:42:24;;;;;;;5.78;4.90;;;56.60;59.90;;;;;;4976817;28;20051;-62
2021/07/08 11:44:52;;;;;;;5.00;4.40;;;57.70;51.00;;;;;;4981814;28;20034;-62
2021/07/08 11:47:20;;;;;;;6.30;4.55;;;55.60;36.90;;;;;;4972159;28;20494;-62
2021/07/08 11:49:48;;;;;;;8.05;4.75;;;54.10;37.40;;;;;;4976828;28;20125;-59
2021/07/08 11:52:19;;;;;;;6.45;4.45;;;54.40;52.10;;;;;;4975256;28;20047;-59
2021/07/08 11:54:59;;;;;;;5.00;4.43;;;56.30;37.90;;;;;;4943480;28;20049;-61
2021/07/08 11:57:26;;;;;;;5.45;4.25;;;54.50;37.90;;;;;;4976363;28;20053;-59
2021/07/08 11:59:52;;;;;;;4.72;4.30;;;55.00;37.00;;;;;;5034666;28;20392;-61
2021/07/08 12:02:36;;;;;;;6.45;4.32;;;57.50;42.50;;;;;;5035392;28;20033;-59
2021/07/08 12:05:16;;;;;;;5.13;4.63;;;56.20;37.90;;;;;;4996239;28;20052;-61
2021/07/08 12:07:45;;;;;;;8.27;4.55;;;56.80;37.40;;;;;;5030760;28;20029;-61
2021/07/08 12:10:11;;;;;;;10.55;4.22;;;55.60;36.80;;;;;;5038731;28;20114;-59
2021/07/08 12:12:38;;;;;;;5.82;4.00;;;;;;;;;;5003679;28;20503;-59
2021/07/08 12:15:05;;;;;;;5.25;4.22;;;58.90;35.90;;;;;;4999994;28;20042;-60
2021/07/08 12:17:31;;;;;;;7.32;4.30;;;58.20;36.80;;;;;;5012490;28;20128;-59
2021/07/08 12:20:08;;;;;;;5.25;4.32;;;57.90;36.40;;;;;;4998594;28;20053;-61
2021/07/08 12:22:36;;;;;;;6.00;4.28;;;58.50;36.00;;;;;;4994261;28;20042;-57
2021/07/08 12:25:14;;;;;;;7.35;4.40;;;58.40;36.20;;;;;;4950529;29;20520;-58
2021/07/08 12:27:40;;;;;;;7.82;4.38;;;;;;;;;;4943150;29;20048;-59
2021/07/08 12:30:16;;;;;;;4.30;3.92;;;58.60;35.70;;;;;;4947422;29;20057;-58
2021/07/08 12:32:42;;;;;;;9.27;4.30;;;58.80;35.80;;;;;;4948751;29;20147;-64
2021/07/08 12:35:07;;;;;;;5.55;3.92;;;58.50;35.50;;;;;;4944212;28;20126;-63
2021/07/08 12:37:40;;;;;;;5.03;4.00;;;57.60;36.00;;;;;;4957602;28;20131;-61
2021/07/08 12:40:15;;;;;;;5.15;3.95;;;57.90;36.30;;;;;;4951923;28;20142;-61
2021/07/08 12:42:43;;;;;;;5.47;4.35;;;57.50;36.30;;;;;;4914671;29;20083;-58
2021/07/08 12:45:14;;;;;;;4.38;3.97;;;58.30;36.60;;;;;;4915480;29;20087;-62
2021/07/08 12:47:45;;;;;;;6.53;3.97;;;57.40;36.10;;;;;;4915286;29;20048;-62
2021/07/08 12:50:15;;;;;;;6.25;4.13;;;57.70;36.60;;;;;;4901233;29;20100;-59
2021/07/08 12:52:42;;;;;;;6.27;4.17;;;58.30;36.70;;;;;;4921377;28;20035;-59
2021/07/08 12:55:28;;;;;;;4.90;4.40;;;58.10;36.20;;;;;;4954590;28;20058;-60
2021/07/08 12:58:05;;;;;;;7.38;4.35;;;57.70;36.00;;;;;;4958998;28;20047;-59